tititudorancea.com
Station Historical Data
Daily Summary for September 12, 2018 Units:  Metric    English   Both
« Previous Day
Next Day »
Daily Weekly Monthly Yearly Custom
  High: Low: Average:
Temperature: -17.8 °C 7.1 °C 10.3 °C
Dew Point: -17.8 °C 3 °C 4.2 °C
Humidity: Humidity % 49 % 66 %
Wind Speed: 0 km/h 1.9 km/h 16.1 km/h
Wind Gust: 0 km/h - -
Wind:- - NW
Pressure: 0 hPa 1008.4 hPa -
Precipitation: 0 mm    
Historical Graphs
 
 
Ararat weather Find more about Weather in Ararat, AU


 



 


Tabular Data for September 12, 2018
Time Temperature Dew Point Pressure Wind Wind Speed Wind Gust Humidity Rainfall Rate (Hourly)
-17.8 °C -17.8 °C 0 hPa Calm     Humidity % 0 mm
00:04 10.3 °C 5.2 °C 1008.4 hPa WNW 24.1 km/h 15.3 km/h 71 % 0 mm
00:09 10.3 °C 5.2 °C 1008.4 hPa NW 16.7 km/h 9.3 km/h 71 % 0 mm
00:14 10.1 °C 5.3 °C 1008.4 hPa WNW 18.5 km/h 13.2 km/h 72 % 0 mm
00:19 9.9 °C 5.1 °C 1008.4 hPa WNW 25.9 km/h 20.3 km/h 72 % 0 mm
00:24 9.9 °C 4.9 °C 1008.4 hPa NW 16.7 km/h 11.4 km/h 71 % 0 mm
00:29 9.8 °C 4.8 °C 1008.4 hPa WNW 22.2 km/h 12.7 km/h 71 % 0 mm
00:34 9.7 °C 4.7 °C 1008.4 hPa WNW 13 km/h 9 km/h 71 % 0 mm
00:39 9.7 °C 4.7 °C 1008.4 hPa WNW 22.2 km/h 18.7 km/h 71 % 0 mm
00:44 9.7 °C 4.3 °C 1008.4 hPa West 18.5 km/h 17.4 km/h 69 % 0 mm
00:49 9.6 °C 4 °C 1008.7 hPa WNW 29.6 km/h 17.7 km/h 68 % 0 mm
00:54 9.6 °C 4 °C 1008.7 hPa WNW 22.2 km/h 17.5 km/h 68 % 0 mm
00:59 9.6 °C 3.9 °C 1008.7 hPa North 24.1 km/h 17.7 km/h 68 % 0 mm
01:04 9.5 °C 4.1 °C 1008.7 hPa North 24.1 km/h 23.3 km/h 69 % 0 mm
01:09 9.6 °C 4 °C 1008.7 hPa West 29.6 km/h 27.7 km/h 68 % 0 mm
01:14 9.7 °C 4.1 °C 1009 hPa WNW 31.5 km/h 20.6 km/h 68 % 0 mm
01:19 9.6 °C 4 °C 1009 hPa West 22.5 km/h 19.2 km/h 68 % 0 mm
01:24 9.5 °C 4.1 °C 1009 hPa WNW 31.5 km/h 21.2 km/h 69 % 0 mm
01:29 9.5 °C 4.1 °C 1009 hPa WNW 31.5 km/h 18.8 km/h 69 % 0 mm
01:34 9.4 °C 3.8 °C 1009 hPa NW 29.6 km/h 20.8 km/h 68 % 0 mm
01:39 9.4 °C 3.6 °C 1009 hPa WNW 24.1 km/h 19.8 km/h 67 % 0 mm
01:44 9.4 °C 3.6 °C 1009 hPa WNW 25.9 km/h 21.9 km/h 67 % 0 mm
01:49 9.6 °C 3.7 °C 1009 hPa WNW 31.5 km/h 21.2 km/h 67 % 0 mm
01:54 9.6 °C 3.8 °C 1009 hPa North 22.2 km/h 17.7 km/h 67 % 0 mm
01:59 9.6 °C 3.9 °C 1009 hPa NW 25.9 km/h 14.8 km/h 68 % 0 mm
02:04 9.4 °C 3.8 °C 1009 hPa WNW 27.8 km/h 23.3 km/h 68 % 0 mm
02:09 9.4 °C 3.8 °C 1009 hPa North 27.8 km/h 21.6 km/h 68 % 0 mm
02:14 9.3 °C 3.9 °C 1009 hPa West 25.9 km/h 18.7 km/h 69 % 0 mm
02:19 9.2 °C 3.8 °C 1009 hPa WNW 31.5 km/h 18.2 km/h 69 % 0 mm
02:24 9.2 °C 3.8 °C 1009 hPa WNW 33.3 km/h 22.4 km/h 69 % 0 mm
02:29 9.2 °C 4 °C 1009 hPa WNW 29 km/h 20.4 km/h 70 % 0 mm
02:34 9.2 °C 4 °C 1009 hPa WNW 30.6 km/h 21.9 km/h 70 % 0 mm
02:39 9.1 °C 3.9 °C 1009 hPa WNW 29.6 km/h 16.9 km/h 70 % 0 mm
02:44 9.1 °C 3.9 °C 1009 hPa West 19.3 km/h 17.1 km/h 70 % 0 mm
02:49 9.1 °C 3.9 °C 1009 hPa NW 25.9 km/h 20.3 km/h 70 % 0 mm
02:51 9.1 °C 3.9 °C 1009 hPa WNW 27.8 km/h 18.8 km/h 70 % 0 mm
02:52 9.1 °C 3.9 °C 1009 hPa WNW 18.5 km/h 11.7 km/h 70 % 0 mm
02:57 9 °C 3.8 °C 1009 hPa North 22.2 km/h 12.6 km/h 70 % 0 mm
03:02 8.9 °C 3.9 °C 1009 hPa WNW 18.5 km/h 13.7 km/h 71 % 0 mm
03:11 8.9 °C 3.8 °C 1009 hPa WNW 16.7 km/h 10.5 km/h 70 % 0 mm
03:19 8.9 °C 3.8 °C 1009 hPa West 25.9 km/h 17.4 km/h 70 % 0 mm
03:24 8.9 °C 3.8 °C 1009 hPa West 22.2 km/h 12.1 km/h 70 % 0 mm
03:29 8.9 °C 3.7 °C 1009.4 hPa West 13 km/h 10.3 km/h 70 % 0 mm
03:34 8.9 °C 3.7 °C 1009.4 hPa West 14.8 km/h 10.6 km/h 70 % 0 mm
03:39 8.8 °C 3.7 °C 1009.4 hPa West 13 km/h 10.5 km/h 70 % 0 mm
03:44 8.8 °C 3.8 °C 1009.4 hPa WNW 20.4 km/h 12.9 km/h 71 % 0 mm
03:49 8.8 °C 3.8 °C 1009.4 hPa West 13 km/h 8.5 km/h 71 % 0 mm
03:54 8.7 °C 3.7 °C 1009.4 hPa West 11.1 km/h 8.7 km/h 71 % 0 mm
03:59 8.6 °C 3.8 °C 1009.4 hPa West 14.8 km/h 12.1 km/h 72 % 0 mm
04:04 8.6 °C 3.8 °C 1009.7 hPa WNW 16.7 km/h 13.2 km/h 72 % 0 mm
04:09 8.7 °C 3.7 °C 1009.7 hPa North 22.2 km/h 17.9 km/h 71 % 0 mm
04:14 8.7 °C 3.5 °C 1009.7 hPa WNW 20.4 km/h 18.2 km/h 70 % 0 mm
04:19 8.7 °C 3.6 °C 1009.7 hPa WNW 20.4 km/h 14.2 km/h 70 % 0 mm
04:24 8.6 °C 3.4 °C 1009.7 hPa WNW 16.7 km/h 13.4 km/h 70 % 0 mm
04:29 8.6 °C 3.4 °C 1009.7 hPa North 18.5 km/h 11.1 km/h 70 % 0 mm
04:34 8.4 °C 3.5 °C 1009.7 hPa North 11.1 km/h 9.2 km/h 71 % 0 mm
04:39 8.4 °C 3.5 °C 1009.7 hPa WNW 14.8 km/h 10.6 km/h 71 % 0 mm
04:44 8.3 °C 3.4 °C 1009.7 hPa North 18.5 km/h 10.9 km/h 71 % 0 mm
04:49 8.3 °C 3.6 °C 1009.7 hPa WNW 18.5 km/h 18.2 km/h 72 % 0 mm
04:54 8.3 °C 3.6 °C 1009.7 hPa WNW 18.5 km/h 14.5 km/h 72 % 0 mm
04:59 8.3 °C 3.5 °C 1009.7 hPa WNW 24.1 km/h 14.6 km/h 72 % 0 mm
05:04 8.2 °C 3.7 °C 1009.7 hPa North 20.4 km/h 13.2 km/h 73 % 0 mm
05:09 8.2 °C 3.6 °C 1009.7 hPa WNW 24.1 km/h 15.9 km/h 73 % 0 mm
05:14 8.2 °C 3.7 °C 1009.7 hPa North 25.9 km/h 16.3 km/h 73 % 0 mm
05:19 8.2 °C 3.7 °C 1010 hPa WNW 20.4 km/h 18 km/h 73 % 0 mm
05:24 8.2 °C 3.7 °C 1010 hPa WNW 18.5 km/h 8.2 km/h 73 % 0 mm
05:29 8.2 °C 3.7 °C 1010.4 hPa NW 16.7 km/h 9.8 km/h 73 % 0 mm
05:34 8.2 °C 3.6 °C 1010.4 hPa NW 13 km/h 8 km/h 73 % 0 mm
05:39 8.2 °C 3.6 °C 1010.4 hPa NW 7.4 km/h 3.4 km/h 73 % 0 mm
05:44 8.1 °C 3.6 °C 1010.7 hPa NW 3.7 km/h   73 % 0 mm
05:49 7.9 °C 3.4 °C 1010.7 hPa NW 5.6 km/h 0.5 km/h 73 % 0 mm
05:54 7.7 °C 3.2 °C 1011.1 hPa North 5.6 km/h 0.2 km/h 73 % 0 mm
05:59 7.4 °C 3.1 °C 1011.1 hPa NW 3.2 km/h 1 km/h 74 % 0 mm
06:04 7.2 °C 3.1 °C 1011.1 hPa North 1.9 km/h   75 % 0 mm
06:09 7.1 °C 3 °C 1011.1 hPa NW 5.6 km/h 3.2 km/h 75 % 0 mm
06:14 7.1 °C 3.1 °C 1011.1 hPa North 5.6 km/h 4.2 km/h 76 % 0 mm
06:19 7.1 °C 3.3 °C 1011.1 hPa NW 8 km/h 4.2 km/h 77 % 0 mm
06:24 7.3 °C 3.6 °C 1011.1 hPa NW 14.8 km/h 8.5 km/h 77 % 0 mm
06:29 7.5 °C 3.6 °C 1011.1 hPa WNW 14.5 km/h 10.5 km/h 76 % 0 mm
06:34 7.7 °C 3.7 °C 1011.1 hPa WNW 16.7 km/h 11.9 km/h 76 % 0 mm
06:39 7.7 °C 3.8 °C 1011.4 hPa WNW 13 km/h 10.3 km/h 76 % 0 mm
06:44 7.7 °C 3.7 °C 1011.4 hPa North 18.5 km/h 7.4 km/h 76 % 0 mm
06:49 7.7 °C 3.7 °C 1011.4 hPa WNW 9.7 km/h 4.5 km/h 76 % 0 mm
06:54 7.7 °C 3.7 °C 1011.4 hPa WNW 7.4 km/h 4.3 km/h 76 % 0 mm
06:59 7.7 °C 3.8 °C 1011.7 hPa North 11.3 km/h 7.2 km/h 76 % 0 mm
07:04 7.8 °C 3.8 °C 1011.7 hPa WNW 11.3 km/h 6.6 km/h 76 % 0 mm
07:09 7.8 °C 3.9 °C 1012.1 hPa WNW 7.4 km/h 5.5 km/h 76 % 0 mm
07:14 7.8 °C 3.8 °C 1012.1 hPa WNW 5.6 km/h 4.3 km/h 76 % 0 mm
07:19 7.7 °C 3.7 °C 1012.1 hPa North 3.7 km/h 0.3 km/h 76 % 0 mm
07:24 7.7 °C 3.8 °C 1012.1 hPa WNW 5.6 km/h 2.9 km/h 76 % 0 mm
07:29 7.8 °C 3.8 °C 1012.1 hPa WNW 7.4 km/h 6.8 km/h 76 % 0 mm
07:34 8 °C 4 °C 1012.4 hPa WNW 9.3 km/h 6.6 km/h 76 % 0 mm
07:39 8.2 °C 4.1 °C 1012.4 hPa WNW 13 km/h 8.2 km/h 75 % 0 mm
07:44 8.5 °C 4.1 °C 1012.8 hPa WNW 7.4 km/h 3.4 km/h 74 % 0 mm
07:49 8.8 °C 4.2 °C 1012.8 hPa WNW 9.7 km/h 8.9 km/h 73 % 0 mm
07:54 8.9 °C 3.9 °C 1012.8 hPa WNW 14.8 km/h 7.6 km/h 71 % 0 mm
07:59 9.1 °C 4.1 °C 1013.1 hPa WNW 8 km/h 7.2 km/h 71 % 0 mm
08:04 9.2 °C 4.1 °C 1013.1 hPa WNW 7.4 km/h 3.2 km/h 70 % 0 mm
08:09 9.4 °C 4.2 °C 1013.1 hPa WNW 9.7 km/h 8 km/h 70 % 0 mm
08:14 9.4 °C 4.4 °C 1013.1 hPa NW 13 km/h 6 km/h 71 % 0 mm
08:19 9.6 °C 4.8 °C 1013.1 hPa NW 6.4 km/h 5.3 km/h 72 % 0 mm
08:24 9.6 °C 4.4 °C 1013.1 hPa NW 9.3 km/h 6.4 km/h 70 % 0 mm
08:29 9.8 °C 4.3 °C 1013.1 hPa North 18.5 km/h 7.2 km/h 69 % 0 mm
08:34 9.8 °C 4.3 °C 1013.4 hPa NW 9.7 km/h 7.6 km/h 69 % 0 mm
08:39 9.7 °C 4.3 °C 1013.4 hPa North 11.1 km/h 9.3 km/h 69 % 0 mm
08:44 9.8 °C 4.3 °C 1013.4 hPa NW 14.8 km/h 14.8 km/h 69 % 0 mm
08:49 10 °C 4.6 °C 1013.4 hPa WNW 16.7 km/h 12.6 km/h 69 % 0 mm
08:54 10.3 °C 5.1 °C 1013.4 hPa WNW 14.8 km/h 6.3 km/h 70 % 0 mm
08:59 10.4 °C 4.5 °C 1013.4 hPa North 22.2 km/h 15 km/h 67 % 0 mm
09:04 10.3 °C 5.1 °C 1013.4 hPa WNW 14.8 km/h 11.4 km/h 70 % 0 mm
09:09 10.5 °C 4.8 °C 1013.8 hPa WNW 14.8 km/h 7.4 km/h 68 % 0 mm
09:14 10.5 °C 4.6 °C 1013.8 hPa North 22.2 km/h 9.7 km/h 67 % 0 mm
09:19 10.6 °C 4.7 °C 1013.8 hPa West 14.8 km/h 10.3 km/h 67 % 0 mm
09:24 10.6 °C 4.7 °C 1013.8 hPa West 14.5 km/h 8.5 km/h 67 % 0 mm
09:29 10.8 °C 4.5 °C 1013.8 hPa West 16.7 km/h 10.5 km/h 65 % 0 mm
09:34 11.1 °C 4.7 °C 1014.1 hPa West 16.7 km/h 13.8 km/h 65 % 0 mm
09:39 11.3 °C 4.8 °C 1014.1 hPa WNW 16.7 km/h 14 km/h 64 % 0 mm
09:44 11.1 °C 4.3 °C 1014.1 hPa West 18.5 km/h 8 km/h 63 % 0 mm
09:49 11.1 °C 4.8 °C 1014.1 hPa West 11.3 km/h 10.5 km/h 65 % 0 mm
09:54 11.1 °C 4.8 °C 1014.1 hPa West 9.3 km/h 9.2 km/h 65 % 0 mm
09:59 11.2 °C 4.7 °C 1014.1 hPa West 11.3 km/h 9.7 km/h 64 % 0 mm
10:04 11.3 °C 4.9 °C 1014.1 hPa West 16.7 km/h 6.9 km/h 65 % 0 mm
10:09 11.7 °C 4.9 °C 1014.1 hPa WNW 14.5 km/h 10 km/h 63 % 0 mm
10:14 11.7 °C 4.4 °C 1014.1 hPa West 11.3 km/h 12.9 km/h 61 % 0 mm
10:19 11.4 °C 3.9 °C 1014.1 hPa WNW 27.8 km/h 12.7 km/h 60 % 0 mm
10:24 12.1 °C 5.2 °C 1014.1 hPa WNW 16.1 km/h 15.3 km/h 63 % 0 mm
10:29 11.9 °C 4.2 °C 1014.1 hPa WNW 22.2 km/h 14.6 km/h 59 % 0 mm
10:34 11.8 °C 4.3 °C 1014.4 hPa West 13 km/h 8.9 km/h 60 % 0 mm
10:39 11.8 °C 4.3 °C 1014.4 hPa WSW 11.1 km/h 7.9 km/h 60 % 0 mm
10:44 11.8 °C 4.3 °C 1014.4 hPa North 11.1 km/h 4.7 km/h 60 % 0 mm
10:49 11.7 °C 4.2 °C 1014.4 hPa WSW 14.8 km/h 9.3 km/h 60 % 0 mm
10:54 11.7 °C 4.4 °C 1014.4 hPa North 8 km/h 5.6 km/h 61 % 0 mm
10:59 11.9 °C 4.4 °C 1014.4 hPa WSW 9.7 km/h 9.3 km/h 60 % 0 mm
11:04 11.9 °C 4.4 °C 1014.4 hPa SW 11.1 km/h 2.9 km/h 60 % 0 mm
11:09 12.3 °C 4.5 °C 1014.4 hPa WSW 16.7 km/h 10.1 km/h 59 % 0 mm
11:14 12.3 °C 4.5 °C 1014.4 hPa West 14.5 km/h 6.8 km/h 59 % 0 mm
11:19 12.3 °C 4.2 °C 1014.4 hPa West 8 km/h 6.8 km/h 58 % 0 mm
11:24 12.3 °C 3.8 °C 1014.4 hPa WNW 12.9 km/h 9.7 km/h 56 % 0 mm
11:29 12.6 °C 4.3 °C 1014.4 hPa North 13 km/h 14.3 km/h 57 % 0 mm
11:34 12.3 °C 3.6 °C 1014.4 hPa WNW 22.2 km/h 10.3 km/h 55 % 0 mm
11:39 12.7 °C 4.1 °C 1014.4 hPa WSW 14.8 km/h 10.3 km/h 56 % 0 mm
11:44 12.7 °C 4.7 °C 1014.1 hPa WSW 9.7 km/h 4.8 km/h 58 % 0 mm
11:49 13.2 °C 4.1 °C 1014.4 hPa WNW 22.5 km/h 16.4 km/h 54 % 0 mm
11:54 12.9 °C 3.8 °C 1014.1 hPa WNW 11.1 km/h 8 km/h 54 % 0 mm
11:59 13.1 °C 4 °C 1014.4 hPa WNW 16.1 km/h 14.6 km/h 54 % 0 mm
12:04 13.3 °C 4.4 °C 1014.4 hPa West 20.4 km/h 18.2 km/h 55 % 0 mm
12:09 12.9 °C 3.3 °C 1014.4 hPa West 27.8 km/h 17.1 km/h 52 % 0 mm
12:14 13.4 °C 4.6 °C 1014.4 hPa NW 31.5 km/h 18 km/h 55 % 0 mm
12:19 13.9 °C 4.7 °C 1014.4 hPa WNW 16.7 km/h 13 km/h 54 % 0 mm
12:24 13.6 °C 3.3 °C 1014.1 hPa WNW 18.5 km/h 13.7 km/h 50 % 0 mm
12:29 13.3 °C 3.7 °C 1014.1 hPa WNW 16.1 km/h 13.5 km/h 52 % 0 mm
12:34 13.2 °C 4.3 °C 1014.1 hPa WNW 16.1 km/h 15.8 km/h 55 % 0 mm
12:39 13.2 °C 3.6 °C 1014.1 hPa WNW 22.5 km/h 17.5 km/h 52 % 0 mm
12:44 13.5 °C 4.1 °C 1014.1 hPa SW 25.9 km/h 17.2 km/h 53 % 0 mm
12:49 13.3 °C 4.5 °C 1014.1 hPa WSW 16.7 km/h 12.7 km/h 55 % 0 mm
12:54 13.6 °C 4.4 °C 1013.8 hPa WNW 16.7 km/h 14.6 km/h 54 % 0 mm
12:59 13.8 °C 3.2 °C 1014.1 hPa NW 20.4 km/h 13.4 km/h 49 % 0 mm
13:04 13.6 °C 3.1 °C 1014.1 hPa NW 18.5 km/h 10.1 km/h 49 % 0 mm
13:09 13.3 °C 3.6 °C 1014.1 hPa WNW 22.5 km/h 17.2 km/h 52 % 0 mm
13:14 12.8 °C 3.2 °C 1014.1 hPa WNW 18.5 km/h 14 km/h 52 % 0 mm
13:19 12.8 °C 4.2 °C 1014.1 hPa WNW 17.7 km/h 11.4 km/h 56 % 0 mm
13:24 12.6 °C 4.8 °C 1014.1 hPa West 25.9 km/h 18.5 km/h 59 % 0 mm
13:29 12.9 °C 5.3 °C 1014.1 hPa WNW 25.9 km/h 12.7 km/h 60 % 0 mm
13:34 12.8 °C 4.5 °C 1014.1 hPa NW 16.7 km/h 13.2 km/h 57 % 0 mm
13:39 13.2 °C 4.6 °C 1014.1 hPa North 24.1 km/h 17.2 km/h 56 % 0 mm
13:44 13.3 °C 4.7 °C 1014.1 hPa NW 18.5 km/h 10.5 km/h 56 % 0 mm
13:49 13.3 °C 5 °C 1013.8 hPa West 22.2 km/h 16.9 km/h 57 % 0 mm
13:54 13.6 °C 5.2 °C 1014.1 hPa North 18.5 km/h 14 km/h 57 % 0 mm
13:59 13.6 °C 5.5 °C 1013.8 hPa West 22.2 km/h 13 km/h 58 % 0 mm
14:04 13.6 °C 5 °C 1013.8 hPa WNW 18.5 km/h 10.3 km/h 56 % 0 mm
14:09 13.3 °C 5.2 °C 1013.8 hPa NW 11.3 km/h 10.1 km/h 58 % 0 mm
14:14 13.4 °C 4.8 °C 1013.8 hPa NW 14.5 km/h 7.6 km/h 56 % 0 mm
14:19 13.6 °C 4.4 °C 1013.8 hPa NNW 13 km/h 12.6 km/h 54 % 0 mm
14:24 13.8 °C 4.3 °C 1013.8 hPa North 29.6 km/h 12.9 km/h 53 % 0 mm
14:29 13.6 °C 4.4 °C 1013.8 hPa WNW 16.7 km/h 14.8 km/h 54 % 0 mm
14:34 13.2 °C 4.6 °C 1013.8 hPa WNW 11.1 km/h 9.8 km/h 56 % 0 mm
14:39 13.1 °C 4 °C 1013.8 hPa North 18.5 km/h 14.5 km/h 54 % 0 mm
14:44 13 °C 4.2 °C 1013.8 hPa WNW 20.4 km/h 11.7 km/h 55 % 0 mm
14:49 13.3 °C 4.5 °C 1013.8 hPa North 24.1 km/h 17.2 km/h 55 % 0 mm
14:54 13.4 °C 4.5 °C 1013.8 hPa WNW 22.2 km/h 15.8 km/h 55 % 0 mm
14:59 13.1 °C 5 °C 1013.8 hPa WNW 12.9 km/h 9.2 km/h 58 % 0 mm
15:04 13.1 °C 4.3 °C 1013.8 hPa NW 24.1 km/h 14 km/h 55 % 0 mm
15:09 13.2 °C 4.3 °C 1013.8 hPa WNW 18.5 km/h 14.2 km/h 55 % 0 mm
15:14 13.9 °C 5.5 °C 1013.4 hPa NW 14.5 km/h 10.8 km/h 57 % 0 mm
15:19 14.3 °C 5.6 °C 1013.8 hPa WSW 24.1 km/h 11.7 km/h 56 % 0 mm
15:24 13.6 °C 5.2 °C 1013.8 hPa NW 17.7 km/h 8.9 km/h 57 % 0 mm
15:29 13.3 °C 4.5 °C 1013.8 hPa North 18.5 km/h 11.7 km/h 55 % 0 mm
15:34 13.2 °C 3.8 °C 1013.8 hPa NW 29.6 km/h 22.5 km/h 53 % 0 mm
15:39 13.1 °C 3.7 °C 1013.8 hPa WNW 29.6 km/h 17.4 km/h 53 % 0 mm
15:44 13.1 °C 4 °C 1013.8 hPa North 11.1 km/h 9.3 km/h 54 % 0 mm
15:49 13.2 °C 3.6 °C 1013.8 hPa West 24.1 km/h 15.8 km/h 52 % 0 mm
15:54 13.3 °C 4.2 °C 1013.8 hPa NW 18.5 km/h 11.4 km/h 54 % 0 mm
15:59 13.4 °C 4.1 °C 1013.8 hPa NW 18.5 km/h 15 km/h 53 % 0 mm
16:04 13.6 °C 4.7 °C 1014.1 hPa WNW 18.5 km/h 12.7 km/h 55 % 0 mm
16:09 13.7 °C 4 °C 1014.1 hPa West 24.1 km/h 16.6 km/h 52 % 0 mm
16:14 13.3 °C 3.9 °C 1014.1 hPa WNW 14.8 km/h 9.2 km/h 53 % 0 mm
16:19 13.3 °C 4.4 °C 1014.1 hPa WNW 16.1 km/h 10.9 km/h 55 % 0 mm
16:24 13.2 °C 4.6 °C 1014.1 hPa West 24.1 km/h 13.7 km/h 56 % 0 mm
16:29 13 °C 4.7 °C 1014.1 hPa North 14.8 km/h 8.4 km/h 57 % 0 mm
16:34 13.2 °C 5.1 °C 1014.4 hPa NW 18.5 km/h 13.2 km/h 58 % 0 mm
16:39 12.9 °C 5.3 °C 1014.4 hPa North 18.5 km/h 17.9 km/h 60 % 0 mm
16:44 12.6 °C 5.3 °C 1014.4 hPa North 18.5 km/h 12.1 km/h 61 % 0 mm
16:49 12.6 °C 5.2 °C 1014.4 hPa North 13 km/h 10.3 km/h 61 % 0 mm
16:54 12.4 °C 5.3 °C 1014.8 hPa North 18.5 km/h 14.6 km/h 62 % 0 mm
16:59 12.2 °C 5.6 °C 1014.8 hPa WNW 16.7 km/h 13.7 km/h 64 % 0 mm
17:04 11.9 °C 5.5 °C 1014.8 hPa WNW 29.6 km/h 17.7 km/h 65 % 0 mm
17:09 11.7 °C 5.6 °C 1014.8 hPa NW 18.5 km/h 13.5 km/h 66 % 0 mm
17:14 11.7 °C 5.5 °C 1015.1 hPa NW 14.8 km/h 9.8 km/h 66 % 0 mm
17:19 11.7 °C 5.1 °C 1015.1 hPa WNW 18.5 km/h 11.6 km/h 64 % 0 mm
17:24 11.8 °C 4.9 °C 1015.1 hPa WNW 16.7 km/h 13.8 km/h 63 % 0 mm
17:29 11.8 °C 4.7 °C 1015.1 hPa NW 18.5 km/h 9.7 km/h 62 % 0 mm
17:34 11.7 °C 4.7 °C 1015.1 hPa North 16.7 km/h 6.9 km/h 62 % 0 mm
17:39 11.7 °C 4.8 °C 1015.1 hPa NW 16.7 km/h 11.4 km/h 63 % 0 mm
17:44 11.6 °C 5 °C 1015.1 hPa NW 16.7 km/h 16.1 km/h 64 % 0 mm
17:49 11.4 °C 5.3 °C 1015.1 hPa NW 19.3 km/h 12.1 km/h 66 % 0 mm
17:54 11.5 °C 5.4 °C 1015.5 hPa NW 14.8 km/h 11.3 km/h 66 % 0 mm
17:59 11.5 °C 5.6 °C 1015.5 hPa NW 13 km/h 7.7 km/h 67 % 0 mm
18:04 11.4 °C 5.5 °C 1015.5 hPa NW 14.8 km/h 10.8 km/h 67 % 0 mm
18:09 11.3 °C 5.6 °C 1015.5 hPa NW 11.1 km/h 9 km/h 68 % 0 mm
18:14 11.2 °C 5.6 °C 1015.8 hPa NW 16.7 km/h 14 km/h 68 % 0 mm
18:19 11.2 °C 5.6 °C 1015.8 hPa NW 11.1 km/h 5 km/h 68 % 0 mm
18:24 11.1 °C 5.4 °C 1015.8 hPa NW 16.7 km/h 10.1 km/h 68 % 0 mm
18:29 11.2 °C 5.6 °C 1015.8 hPa NW 14.8 km/h 9.5 km/h 68 % 0 mm
18:34 11.1 °C 5.4 °C 1015.8 hPa North 9.3 km/h 6.1 km/h 68 % 0 mm
18:39 11.1 °C 5.4 °C 1015.8 hPa NW 13 km/h 6.4 km/h 68 % 0 mm
18:44 10.9 °C 5.3 °C 1016.1 hPa NW 11.1 km/h 6.6 km/h 68 % 0 mm
18:49 10.8 °C 5.2 °C 1016.1 hPa NW 5.6 km/h 4.5 km/h 68 % 0 mm
18:54 10.8 °C 5.1 °C 1016.1 hPa North 14.8 km/h 7.9 km/h 68 % 0 mm
18:59 10.8 °C 5.1 °C 1016.1 hPa NW 18.5 km/h 9.3 km/h 68 % 0 mm
19:04 10.8 °C 5.1 °C 1016.1 hPa NW 6.4 km/h 5.1 km/h 68 % 0 mm
19:09 10.6 °C 4.9 °C 1016.5 hPa North 11.3 km/h 8.5 km/h 68 % 0 mm
19:14 10.5 °C 4.8 °C 1016.5 hPa NW 13 km/h 6 km/h 68 % 0 mm
19:19 10.4 °C 4.7 °C 1016.5 hPa NW 11.1 km/h 6.3 km/h 68 % 0 mm
19:24 10.3 °C 4.6 °C 1016.5 hPa NW 11.1 km/h 6 km/h 68 % 0 mm
19:29 10.2 °C 4.5 °C 1016.8 hPa NW 9.3 km/h 5.3 km/h 68 % 0 mm
19:34 10.1 °C 4.4 °C 1016.8 hPa NW 6.4 km/h 5.3 km/h 68 % 0 mm
19:39 9.9 °C 4.3 °C 1016.8 hPa North 7.4 km/h 4.7 km/h 68 % 0 mm
19:42 9.9 °C 4.3 °C 1016.8 hPa NW 6.4 km/h 5.1 km/h 68 % 0 mm
19:54 9.9 °C 4.3 °C 1017.2 hPa North 5.6 km/h 5.6 km/h 68 % 0 mm
19:59 9.9 °C 4.1 °C 1017.2 hPa NW 7.4 km/h 5.3 km/h 67 % 0 mm
20:04 9.8 °C 4.2 °C 1017.2 hPa North 5.6 km/h 3.9 km/h 68 % 0 mm
20:09 9.7 °C 4.1 °C 1017.2 hPa North 7.4 km/h 6.9 km/h 68 % 0 mm
20:14 9.6 °C 4.2 °C 1017.2 hPa NW 13 km/h 8.9 km/h 69 % 0 mm
20:19 9.6 °C 4.2 °C 1017.2 hPa NW 13 km/h 9.2 km/h 69 % 0 mm
20:24 9.5 °C 4.1 °C 1017.2 hPa North 9.7 km/h 8 km/h 69 % 0 mm
20:29 9.4 °C 4.2 °C 1017.5 hPa NW 13 km/h 9.7 km/h 70 % 0 mm
20:34 9.6 °C 4.2 °C 1017.5 hPa NW 8 km/h 7.2 km/h 69 % 0 mm
20:39 9.6 °C 4.2 °C 1017.5 hPa North 9.3 km/h 7.4 km/h 69 % 0 mm
20:44 9.5 °C 4.1 °C 1017.5 hPa North 12.9 km/h 10.9 km/h 69 % 0 mm
20:49 9.6 °C 4.2 °C 1017.5 hPa NW 9.3 km/h 8 km/h 69 % 0 mm
20:54 9.6 °C 4.2 °C 1017.5 hPa WNW 14.5 km/h 9.2 km/h 69 % 0 mm
20:59 9.6 °C 4.3 °C 1017.5 hPa North 8 km/h 6.8 km/h 70 % 0 mm
21:04 9.5 °C 4.3 °C 1017.5 hPa WNW 13 km/h 7.2 km/h 70 % 0 mm
21:09 9.4 °C 4.2 °C 1017.5 hPa WNW 9.3 km/h 5.8 km/h 70 % 0 mm
21:14 9.3 °C 4.1 °C 1017.5 hPa North 11.1 km/h 7.9 km/h 70 % 0 mm
21:19 9.2 °C 4.2 °C 1017.5 hPa WNW 7.4 km/h 6.8 km/h 71 % 0 mm
21:24 9.2 °C 4.2 °C 1017.5 hPa WNW 7.4 km/h 6.4 km/h 71 % 0 mm
21:29 9.2 °C 4.2 °C 1017.5 hPa WNW 8 km/h 6.8 km/h 71 % 0 mm
21:34 9.1 °C 4.3 °C 1017.5 hPa North 11.3 km/h 8.7 km/h 72 % 0 mm
21:39 9.1 °C 4.3 °C 1017.5 hPa WNW 7.4 km/h 5.5 km/h 72 % 0 mm
21:44 9 °C 4.2 °C 1017.5 hPa WNW 14.5 km/h 8.4 km/h 72 % 0 mm
21:49 9 °C 4.2 °C 1017.5 hPa WNW 9.3 km/h 8.7 km/h 72 % 0 mm
21:54 8.9 °C 3.9 °C 1017.5 hPa WNW 11.1 km/h 7.2 km/h 71 % 0 mm
21:59 8.9 °C 3.9 °C 1017.5 hPa WNW 18.5 km/h 14.2 km/h 71 % 0 mm
22:04 9.1 °C 3.9 °C 1017.5 hPa North 18.5 km/h 14.2 km/h 70 % 0 mm
22:09 9.3 °C 3.9 °C 1017.5 hPa WNW 18.5 km/h 13.5 km/h 69 % 0 mm
22:14 9.3 °C 3.9 °C 1017.5 hPa WNW 20.9 km/h 13.8 km/h 69 % 0 mm
22:19 9.3 °C 3.9 °C 1017.5 hPa WNW 14.8 km/h 14 km/h 69 % 0 mm
22:24 9.3 °C 3.9 °C 1017.5 hPa WNW 14.8 km/h 12.7 km/h 69 % 0 mm
22:29 9.3 °C 3.7 °C 1017.8 hPa WNW 13 km/h 11.9 km/h 68 % 0 mm
22:34 9.3 °C 3.9 °C 1017.8 hPa North 11.3 km/h 9.7 km/h 69 % 0 mm
22:39 9.2 °C 3.8 °C 1017.8 hPa WNW 9.3 km/h 9 km/h 69 % 0 mm
22:44 9.1 °C 3.9 °C 1017.8 hPa WNW 13 km/h 6.8 km/h 70 % 0 mm
22:49 9.1 °C 3.9 °C 1017.5 hPa WNW 16.7 km/h 7.6 km/h 70 % 0 mm
22:54 9.1 °C 3.9 °C 1017.8 hPa NW 16.1 km/h 10.6 km/h 70 % 0 mm
22:59 9.2 °C 4.1 °C 1017.8 hPa WNW 13 km/h 9.3 km/h 70 % 0 mm
23:04 9.2 °C 4.1 °C 1017.8 hPa WNW 14.8 km/h 7.4 km/h 70 % 0 mm
23:09 9.2 °C 4 °C 1017.8 hPa WNW 9.3 km/h 5 km/h 70 % 0 mm
23:14 9.1 °C 3.9 °C 1017.5 hPa WNW 16.7 km/h 6.3 km/h 70 % 0 mm
23:19 9.1 °C 3.9 °C 1017.8 hPa North 11.1 km/h 6.8 km/h 70 % 0 mm
23:24 9.1 °C 3.9 °C 1017.5 hPa North 9.3 km/h 7.1 km/h 70 % 0 mm
23:29 9.1 °C 3.9 °C 1017.8 hPa WNW 9.3 km/h 6.3 km/h 70 % 0 mm
23:34 9 °C 3.8 °C 1017.8 hPa WNW 7.4 km/h 3.9 km/h 70 % 0 mm
23:39 8.8 °C 3.8 °C 1017.8 hPa WNW 5.6 km/h 5.6 km/h 71 % 0 mm
23:44 8.6 °C 3.8 °C 1017.8 hPa WNW 11.1 km/h 8 km/h 72 % 0 mm
23:49 8.6 °C 3.8 °C 1017.8 hPa WNW 12.9 km/h 9.3 km/h 72 % 0 mm
23:54 8.7 °C 3.8 °C 1017.8 hPa NW 11.1 km/h 5.5 km/h 71 % 0 mm
23:59 8.5 °C 3.6 °C 1017.8 hPa NW 9.7 km/h 7.9 km/h 71 % 0 mm
Ararat Weather
Compliments of Weather Underground - 2.25 mb
Click here to send mail.


ABOUT

Live weather data from Ararat, Victoria, Australia, 3377
Data uploaded from Cumulus every 5 minutes to Weather Underground.
This site then downloads the raw data for formatting and display.
Metric and imperial data can be displayed. Graphs and historical data available.
Includes Sun and Moon times and rain image live from BOM.

Check out Ararat Weather on Facebook, Twitter and Google +

Help support ongoing costs by checking out the ads





Follow @AraratWeather